Time;durP1;ratioP1;P1;durP2;ratioP2;P2;SDS_P1;SDS_P2;PMS_P1;PMS_P2;Temp;Humidity;BMP_temperature;BMP_pressure;BME280_temperature;BME280_humidity;BME280_pressure;Samples;Min_cycle;Max_cycle;Signal;HPM_P1;HPM_P2
2022/02/08 00:01:59;;;;;;;10.50;3.30;;;3.60;99.90;;;;;;4950423;28;20209;-66
2022/02/08 00:04:26;;;;;;;11.33;3.53;;;3.60;99.90;;;;;;4958079;28;20204;-68
2022/02/08 00:06:55;;;;;;;12.30;3.73;;;3.60;99.90;;;;;;4952034;29;20237;-67
2022/02/08 00:09:24;;;;;;;11.40;3.30;;;3.60;99.90;;;;;;4958739;28;20213;-67
2022/02/08 00:11:51;;;;;;;10.67;3.90;;;3.70;99.90;;;;;;4955838;28;20304;-66
2022/02/08 00:14:18;;;;;;;12.17;4.27;;;3.60;99.90;;;;;;4952186;28;20645;-67
2022/02/08 00:16:45;;;;;;;8.43;3.47;;;3.60;99.90;;;;;;4961615;28;20205;-67
2022/02/08 00:19:11;;;;;;;12.23;4.27;;;3.70;99.90;;;;;;4963515;28;20244;-67
2022/02/08 00:21:38;;;;;;;11.50;4.10;;;3.70;99.90;;;;;;4956421;28;20345;-67
2022/02/08 00:24:07;;;;;;;13.17;3.50;;;3.70;99.90;;;;;;4957586;29;20694;-67
2022/02/08 00:26:34;;;;;;;8.87;3.30;;;3.70;99.90;;;;;;4967360;28;20239;-66
2022/02/08 00:29:01;;;;;;;17.77;5.20;;;3.70;99.90;;;;;;4963478;28;20646;-67
2022/02/08 00:31:28;;;;;;;16.13;3.90;;;3.70;99.90;;;;;;4956166;28;20209;-67
2022/02/08 00:33:55;;;;;;;8.57;3.30;;;3.70;99.90;;;;;;4957014;28;20213;-67
2022/02/08 00:36:22;;;;;;;9.93;3.97;;;3.80;99.90;;;;;;4955890;28;20308;-68
2022/02/08 00:38:50;;;;;;;14.10;3.47;;;3.70;99.90;;;;;;4957970;28;20229;-68
2022/02/08 00:41:18;;;;;;;10.17;3.33;;;3.70;99.90;;;;;;4957031;28;20209;-66
2022/02/08 00:43:51;;;;;;;16.57;3.40;;;3.80;99.90;;;;;;4957181;28;20213;-67
2022/02/08 00:46:24;;;;;;;9.13;3.37;;;3.80;99.90;;;;;;4948105;28;20217;-67
2022/02/08 00:48:57;;;;;;;10.53;3.93;;;3.80;99.90;;;;;;4954685;28;20240;-67
2022/02/08 00:51:26;;;;;;;9.83;3.60;;;3.80;99.90;;;;;;4957787;29;20205;-67
2022/02/08 00:53:53;;;;;;;14.77;3.83;;;3.80;99.90;;;;;;4956997;28;20213;-67
2022/02/08 00:56:21;;;;;;;15.27;3.67;;;3.80;99.90;;;;;;4957222;28;20210;-66
2022/02/08 00:58:48;;;;;;;10.10;3.07;;;3.80;99.90;;;;;;4956638;28;20205;-67
2022/02/08 01:01:15;;;;;;;16.13;4.03;;;3.80;99.90;;;;;;4955562;29;20213;-67
2022/02/08 01:03:43;;;;;;;14.57;4.43;;;3.80;99.90;;;;;;4956990;28;20301;-67
2022/02/08 01:06:10;;;;;;;13.87;3.90;;;3.80;99.90;;;;;;4956364;28;20586;-68
2022/02/08 01:08:40;;;;;;;13.00;3.90;;;3.80;99.90;;;;;;4956295;28;20229;-66
2022/02/08 01:11:10;;;;;;;12.40;3.40;;;3.80;99.90;;;;;;4956285;28;20685;-68
2022/02/08 01:13:40;;;;;;;15.27;3.70;;;3.80;99.90;;;;;;4948467;28;20209;-68
2022/02/08 01:16:08;;;;;;;13.60;4.97;;;3.80;99.90;;;;;;4956559;28;20205;-67
2022/02/08 01:18:39;;;;;;;12.63;2.90;;;3.80;99.90;;;;;;4957006;28;20216;-68
2022/02/08 01:21:06;;;;;;;15.43;3.60;;;3.80;99.90;;;;;;4956673;28;20241;-67
2022/02/08 01:23:33;;;;;;;15.90;4.80;;;3.80;99.90;;;;;;4956783;28;20209;-67
2022/02/08 01:26:08;;;;;;;13.17;4.07;;;3.80;99.90;;;;;;4955538;28;20272;-67
2022/02/08 01:28:42;;;;;;;13.53;3.87;;;3.80;99.90;;;;;;4945333;29;20221;-68
2022/02/08 01:31:13;;;;;;;13.60;3.63;;;3.80;99.90;;;;;;4955678;28;20206;-66
2022/02/08 01:36:39;;;;;;;22.07;4.50;;;3.80;99.90;;;;;;4956317;28;20213;-68
2022/02/08 01:39:11;;;;;;;16.57;4.53;;;3.80;99.90;;;;;;4951306;28;20260;-67
2022/02/08 01:44:28;;;;;;;15.60;3.97;;;3.80;99.90;;;;;;4950774;29;20205;-68
2022/02/08 01:49:56;;;;;;;12.57;3.70;;;3.80;99.90;;;;;;4946256;29;20257;-67
2022/02/08 01:52:24;;;;;;;16.03;4.00;;;3.70;99.90;;;;;;4955617;28;20198;-67
2022/02/08 01:54:51;;;;;;;18.67;4.00;;;3.70;99.90;;;;;;4955501;29;20213;-67
2022/02/08 01:57:18;;;;;;;12.10;3.40;;;3.70;99.90;;;;;;4955081;28;20201;-68
2022/02/08 01:59:45;;;;;;;14.47;4.37;;;3.70;99.90;;;;;;4956284;28;20209;-68
2022/02/08 02:02:13;;;;;;;12.90;3.63;;;3.70;99.90;;;;;;4955389;28;20217;-65
2022/02/08 02:04:41;;;;;;;16.53;4.33;;;3.70;99.90;;;;;;4955411;28;20210;-66
2022/02/08 02:07:07;;;;;;;15.13;3.37;;;3.70;99.90;;;;;;4955331;29;20674;-65
2022/02/08 02:09:34;;;;;;;10.53;3.33;;;3.70;99.90;;;;;;4954115;29;20406;-66
2022/02/08 02:12:01;;;;;;;15.20;3.97;;;3.70;99.90;;;;;;4955453;28;20681;-65
2022/02/08 02:14:28;;;;;;;16.67;4.57;;;3.70;99.90;;;;;;4954571;28;20288;-65
2022/02/08 02:16:58;;;;;;;8.90;4.00;;;3.70;99.90;;;;;;4959293;28;20705;-66
2022/02/08 02:19:29;;;;;;;8.60;3.53;;;3.70;99.90;;;;;;4954070;28;20236;-65
2022/02/08 02:21:56;;;;;;;12.57;3.43;;;3.70;99.90;;;;;;4954414;28;20614;-65
2022/02/08 02:24:25;;;;;;;18.40;4.80;;;3.70;99.90;;;;;;4954040;28;20209;-65
2022/02/08 02:26:52;;;;;;;13.23;4.30;;;3.70;99.90;;;;;;4948966;28;20224;-65
2022/02/08 02:29:21;;;;;;;10.53;3.40;;;3.80;99.90;;;;;;4954967;28;20233;-65
2022/02/08 02:31:48;;;;;;;16.40;4.53;;;3.80;99.90;;;;;;4952327;28;20312;-65
2022/02/08 02:34:17;;;;;;;16.03;4.30;;;3.80;99.90;;;;;;4951110;28;20291;-65
2022/02/08 02:36:45;;;;;;;11.90;3.53;;;3.80;99.90;;;;;;4954662;28;20217;-65
2022/02/08 02:39:12;;;;;;;16.53;3.87;;;3.80;99.90;;;;;;4954341;29;20228;-66
2022/02/08 02:41:42;;;;;;;13.27;3.70;;;3.80;99.90;;;;;;4941041;29;20684;-65
2022/02/08 02:44:11;;;;;;;12.43;3.47;;;3.90;99.90;;;;;;4953690;29;20673;-65
2022/02/08 02:46:38;;;;;;;13.93;3.73;;;3.80;99.90;;;;;;4954865;29;20205;-65
2022/02/08 02:49:05;;;;;;;12.23;3.37;;;3.80;99.90;;;;;;4954977;28;20217;-65
2022/02/08 02:51:33;;;;;;;15.03;4.37;;;3.80;99.90;;;;;;4947850;29;20223;-65
2022/02/08 02:54:01;;;;;;;12.47;4.17;;;3.80;99.90;;;;;;4954047;28;20220;-65
2022/02/08 02:56:28;;;;;;;12.50;3.50;;;3.80;99.90;;;;;;4955237;28;20700;-66
2022/02/08 02:59:01;;;;;;;8.40;3.23;;;3.80;99.90;;;;;;4954407;28;20212;-66
2022/02/08 03:01:34;;;;;;;9.63;2.90;;;3.80;99.90;;;;;;4954210;28;20300;-66
2022/02/08 03:04:19;;;;;;;6.80;2.83;;;3.90;99.90;;;;;;4953279;28;20292;-65
2022/02/08 03:20:28;;;;;;;8.07;3.23;;;3.80;99.90;;;;;;4923916;29;20245;-66
2022/02/08 03:22:54;;;;;;;12.00;3.03;;;3.90;99.90;;;;;;4953877;29;20642;-66
2022/02/08 03:25:21;;;;;;;9.30;2.37;;;3.80;99.90;;;;;;4953885;28;20353;-67
2022/02/08 03:27:48;;;;;;;10.37;3.17;;;3.80;99.90;;;;;;4954120;28;20224;-66
2022/02/08 03:30:17;;;;;;;9.63;2.50;;;3.80;99.90;;;;;;4954183;29;20209;-66
2022/02/08 03:32:44;;;;;;;9.30;2.70;;;3.80;99.90;;;;;;4953176;28;20209;-66
2022/02/08 03:35:12;;;;;;;7.27;2.57;;;3.80;99.90;;;;;;4954341;28;20635;-65
2022/02/08 03:37:39;;;;;;;7.93;2.30;;;3.80;99.90;;;;;;4954124;28;20969;-66
2022/02/08 03:40:12;;;;;;;9.30;2.40;;;3.80;99.90;;;;;;4953909;28;20281;-65
2022/02/08 03:42:56;;;;;;;10.23;3.03;;;3.80;99.90;;;;;;4953909;28;20239;-66
2022/02/08 03:45:24;;;;;;;9.60;2.50;;;3.80;99.90;;;;;;4954192;28;20214;-65
2022/02/08 03:47:51;;;;;;;10.10;2.37;;;3.80;99.90;;;;;;4952073;29;20315;-66
2022/02/08 03:50:18;;;;;;;8.53;2.70;;;3.90;99.90;;;;;;4956947;29;20300;-66
2022/02/08 03:52:45;;;;;;;6.07;1.93;;;3.80;99.90;;;;;;4957081;29;20296;-66
2022/02/08 03:55:12;;;;;;;6.33;1.97;;;3.90;99.90;;;;;;4957712;28;20260;-66
2022/02/08 03:57:39;;;;;;;8.00;2.00;;;3.90;99.90;;;;;;4957247;28;20316;-65
2022/02/08 04:00:07;;;;;;;9.27;1.90;;;3.90;99.90;;;;;;4957987;28;20710;-65
2022/02/08 04:02:40;;;;;;;10.87;3.40;;;3.90;99.90;;;;;;4956523;28;20627;-65
2022/02/08 04:05:15;;;;;;;7.93;1.87;;;3.90;99.90;;;;;;4955919;28;20210;-64
2022/02/08 04:07:46;;;;;;;17.47;3.00;;;3.90;99.90;;;;;;4955386;28;20216;-65
2022/02/08 04:10:20;;;;;;;8.97;1.90;;;3.90;99.90;;;;;;4957414;29;20280;-65
2022/02/08 04:12:55;;;;;;;7.80;2.47;;;3.90;99.90;;;;;;4956145;29;20304;-65
2022/02/08 04:15:34;;;;;;;3.73;1.80;;;3.90;99.90;;;;;;4960351;28;20207;-66
2022/02/08 04:35:11;;;;;;;6.30;1.97;;;3.90;99.90;;;;;;4957839;29;20209;-66
2022/02/08 04:43:15;;;;;;;2.53;1.10;;;3.90;99.90;;;;;;4953071;28;20205;-65
2022/02/08 04:45:47;;;;;;;3.90;0.90;;;3.90;99.90;;;;;;4955920;28;20201;-65
2022/02/08 04:48:26;;;;;;;3.43;1.27;;;3.90;99.90;;;;;;4956974;28;20225;-66
2022/02/08 04:51:05;;;;;;;2.57;1.33;;;3.90;99.90;;;;;;4956366;29;20209;-66
2022/02/08 04:53:37;;;;;;;6.50;1.30;;;3.90;99.90;;;;;;4956347;28;20205;-66
2022/02/08 04:56:12;;;;;;;4.40;1.63;;;3.90;99.90;;;;;;4944233;28;20569;-66
2022/02/08 04:58:45;;;;;;;3.77;1.30;;;3.90;99.90;;;;;;4956820;28;20211;-66
2022/02/08 05:01:18;;;;;;;4.80;1.67;;;3.90;99.90;;;;;;4943958;29;20324;-66
2022/02/08 05:34:23;;;;;;;4.53;1.60;;;4.00;99.90;;;;;;4955656;28;20580;-66
2022/02/08 05:42:28;;;;;;;7.23;2.20;;;3.90;99.90;;;;;;4955210;28;20209;-66
2022/02/08 05:44:58;;;;;;;8.77;2.47;;;3.80;99.90;;;;;;4955779;28;20217;-68
2022/02/08 05:47:26;;;;;;;6.00;2.47;;;3.80;99.90;;;;;;4955926;29;20202;-66
2022/02/08 05:50:05;;;;;;;9.30;3.20;;;3.70;99.90;;;;;;4955100;28;20295;-65
2022/02/08 05:55:17;;;;;;;9.77;3.10;;;3.70;99.90;;;;;;4953959;28;20645;-65
2022/02/08 05:57:44;;;;;;;8.70;2.83;;;3.70;99.90;;;;;;4953780;28;20209;-66
2022/02/08 06:00:12;;;;;;;5.70;2.50;;;3.60;99.90;;;;;;4953556;29;20209;-67
2022/02/08 06:02:39;;;;;;;6.07;2.70;;;3.60;99.90;;;;;;4953115;28;20653;-67
2022/02/08 06:05:11;;;;;;;5.60;3.03;;;3.60;99.90;;;;;;4953559;29;20252;-65
2022/02/08 06:07:38;;;;;;;6.40;2.50;;;3.60;99.90;;;;;;4955450;28;20217;-66
2022/02/08 06:10:06;;;;;;;9.43;3.43;;;3.60;99.90;;;;;;4956442;29;20264;-69
2022/02/08 06:12:43;;;;;;;5.73;2.40;;;3.50;99.90;;;;;;4955838;28;20257;-68
2022/02/08 06:15:12;;;;;;;7.07;2.30;;;3.50;99.90;;;;;;4961116;28;20292;-69
2022/02/08 06:17:39;;;;;;;6.53;2.73;;;3.40;99.90;;;;;;4960540;28;20305;-66
2022/02/08 06:20:08;;;;;;;7.00;2.33;;;3.40;99.90;;;;;;4956724;28;20228;-68
2022/02/08 06:22:35;;;;;;;7.97;2.53;;;3.40;99.90;;;;;;4953886;29;20585;-67
2022/02/08 06:25:02;;;;;;;8.57;2.67;;;3.40;99.90;;;;;;4954647;28;20606;-65
2022/02/08 06:27:30;;;;;;;5.83;2.43;;;3.40;99.90;;;;;;4954152;28;20221;-66
2022/02/08 06:29:59;;;;;;;5.43;2.13;;;3.50;99.90;;;;;;4952185;29;20724;-67
2022/02/08 06:32:27;;;;;;;7.97;2.67;;;3.50;99.90;;;;;;4953876;29;20228;-68
2022/02/08 06:34:56;;;;;;;6.87;2.27;;;3.50;99.90;;;;;;4961388;28;20650;-66
2022/02/08 06:37:25;;;;;;;6.10;3.00;;;3.50;99.90;;;;;;4953931;29;20209;-66
2022/02/08 06:39:52;;;;;;;7.30;2.50;;;3.60;99.90;;;;;;4953274;29;20237;-67
2022/02/08 06:42:18;;;;;;;5.13;2.43;;;3.60;99.90;;;;;;4954165;29;20300;-67
2022/02/08 06:44:45;;;;;;;6.53;2.33;;;3.70;99.90;;;;;;4952797;29;20662;-67
2022/02/08 06:47:15;;;;;;;5.60;2.40;;;3.70;99.90;;;;;;4953375;29;20248;-67
2022/02/08 06:49:42;;;;;;;5.30;2.60;;;3.70;99.90;;;;;;4954367;29;20236;-68
2022/02/08 06:52:09;;;;;;;5.53;2.20;;;3.80;99.90;;;;;;4955041;28;21718;-65
2022/02/08 06:54:36;;;;;;;7.50;2.93;;;3.90;99.90;;;;;;4954032;29;20236;-67
2022/02/08 06:57:05;;;;;;;8.53;2.30;;;3.90;99.90;;;;;;4953998;29;20576;-67
2022/02/08 06:59:37;;;;;;;6.90;2.60;;;3.90;99.90;;;;;;4951573;29;20209;-68
2022/02/08 07:02:04;;;;;;;8.53;2.60;;;4.00;99.90;;;;;;4947661;29;20205;-68
2022/02/08 07:04:33;;;;;;;9.13;2.60;;;3.90;99.90;;;;;;4955253;28;20311;-70
2022/02/08 07:07:00;;;;;;;6.43;2.60;;;3.90;99.90;;;;;;4955058;29;20213;-68
2022/02/08 07:09:27;;;;;;;7.87;2.73;;;3.90;99.90;;;;;;4960269;28;20231;-67
2022/02/08 07:11:57;;;;;;;9.43;2.73;;;4.00;99.90;;;;;;4954755;29;20741;-69
2022/02/08 07:14:28;;;;;;;6.10;2.30;;;4.10;99.90;;;;;;4951710;28;20867;-68
2022/02/08 07:16:55;;;;;;;3.93;2.30;;;4.20;99.90;;;;;;4960444;28;20215;-68
2022/02/08 07:19:22;;;;;;;6.00;1.90;;;4.20;99.90;;;;;;4955278;28;20244;-68
2022/02/08 07:21:50;;;;;;;6.77;2.50;;;4.20;99.90;;;;;;4953409;29;20327;-68
2022/02/08 07:24:18;;;;;;;7.23;2.40;;;4.10;99.90;;;;;;4960345;28;20227;-66
2022/02/08 07:26:46;;;;;;;7.03;2.57;;;4.10;99.90;;;;;;4957795;29;20209;-68
2022/02/08 07:29:13;;;;;;;5.27;2.03;;;4.00;99.90;;;;;;4955650;29;20276;-69
2022/02/08 07:31:48;;;;;;;9.37;2.57;;;4.00;99.90;;;;;;4959069;28;20224;-68
2022/02/08 07:34:19;;;;;;;5.40;2.40;;;4.00;99.90;;;;;;4957243;29;20205;-68
2022/02/08 07:36:53;;;;;;;8.83;2.70;;;4.10;99.90;;;;;;4960867;28;20205;-68
2022/02/08 07:39:24;;;;;;;7.57;4.17;;;4.10;99.90;;;;;;4947542;29;20268;-68
2022/02/08 07:41:51;;;;;;;6.60;2.90;;;4.10;99.90;;;;;;4959330;28;20209;-68
2022/02/08 07:44:18;;;;;;;7.00;2.97;;;4.10;99.90;;;;;;4961002;28;20220;-68
2022/02/08 07:46:45;;;;;;;10.77;3.27;;;4.10;99.90;;;;;;4956325;29;20219;-68
2022/02/08 07:49:13;;;;;;;8.83;2.87;;;4.20;99.90;;;;;;4960312;28;20311;-69
2022/02/08 07:51:41;;;;;;;8.27;2.90;;;4.20;99.90;;;;;;4951363;29;20232;-67
2022/02/08 07:54:09;;;;;;;13.90;3.60;;;4.20;99.90;;;;;;4960853;28;20219;-68
2022/02/08 07:56:37;;;;;;;7.07;3.43;;;4.10;99.90;;;;;;4959244;28;20209;-67
2022/02/08 07:59:04;;;;;;;9.57;3.20;;;4.10;99.90;;;;;;4956232;29;20244;-66
2022/02/08 08:01:31;;;;;;;11.33;3.70;;;4.10;99.90;;;;;;4957115;29;20572;-69
2022/02/08 08:03:58;;;;;;;10.70;3.40;;;4.10;99.90;;;;;;4952319;29;20233;-70
2022/02/08 08:06:25;;;;;;;9.50;3.30;;;4.20;99.90;;;;;;4960888;28;20248;-69
2022/02/08 08:08:52;;;;;;;13.27;3.20;;;4.20;99.90;;;;;;4959889;28;20272;-70
2022/02/08 08:11:21;;;;;;;6.73;3.20;;;4.20;99.90;;;;;;4957862;28;20697;-69
2022/02/08 08:13:59;;;;;;;10.50;3.77;;;4.20;99.90;;;;;;4954053;29;20245;-70
2022/02/08 08:16:37;;;;;;;7.63;3.53;;;4.30;99.90;;;;;;4960620;28;20229;-69
2022/02/08 08:19:18;;;;;;;12.80;3.73;;;4.60;99.90;;;;;;4956926;28;20212;-68
2022/02/08 08:21:45;;;;;;;12.47;3.97;;;4.90;99.90;;;;;;4955706;28;20249;-68
2022/02/08 08:24:13;;;;;;;11.70;4.30;;;5.10;99.90;;;;;;4956319;29;20308;-67
2022/02/08 08:26:40;;;;;;;15.50;4.47;;;5.30;99.90;;;;;;4957246;29;20217;-68
2022/02/08 08:29:08;;;;;;;12.67;4.10;;;5.30;99.90;;;;;;4955490;28;20327;-68
2022/02/08 08:31:36;;;;;;;17.07;4.63;;;5.20;99.90;;;;;;4957500;28;20717;-67
2022/02/08 08:34:02;;;;;;;15.87;4.17;;;5.20;99.90;;;;;;4957216;28;20329;-68
2022/02/08 08:36:30;;;;;;;15.40;4.30;;;5.10;99.90;;;;;;4958006;28;20209;-69
2022/02/08 08:38:57;;;;;;;14.10;3.97;;;5.10;99.90;;;;;;4957504;28;20213;-71
2022/02/08 08:41:30;;;;;;;16.60;4.90;;;5.00;99.90;;;;;;4955469;29;20205;-67
2022/02/08 08:49:38;;;;;;;15.00;3.77;;;5.10;99.90;;;;;;4955922;29;20228;-67
2022/02/08 08:52:05;;;;;;;15.13;4.03;;;5.10;99.90;;;;;;4953724;29;20260;-68
2022/02/08 08:54:32;;;;;;;12.53;4.20;;;5.10;99.90;;;;;;4955988;28;20280;-68
2022/02/08 08:56:59;;;;;;;15.97;4.80;;;5.10;99.90;;;;;;4957992;29;20294;-69
2022/02/08 08:59:26;;;;;;;11.00;4.13;;;5.00;99.90;;;;;;4955667;29;20205;-68
2022/02/08 09:01:54;;;;;;;12.93;4.20;;;5.00;99.90;;;;;;4956379;29;20217;-68
2022/02/08 09:04:23;;;;;;;17.60;5.13;;;5.10;99.90;;;;;;4957533;28;20208;-68
2022/02/08 09:06:50;;;;;;;16.83;4.30;;;5.10;99.90;;;;;;4957014;29;20304;-68
2022/02/08 09:09:20;;;;;;;18.07;5.13;;;5.00;99.90;;;;;;4962177;28;20221;-68
2022/02/08 09:11:56;;;;;;;18.23;5.17;;;4.90;99.90;;;;;;4957150;29;20209;-68
2022/02/08 09:14:37;;;;;;;14.77;4.90;;;4.90;99.90;;;;;;4948878;29;20570;-67
2022/02/08 09:17:32;;;;;;;17.03;4.80;;;4.90;99.90;;;;;;4959238;28;20212;-68
2022/02/08 09:23:10;;;;;;;14.63;4.20;;;5.30;99.90;;;;;;4900702;29;20704;-68
2022/02/08 09:25:54;;;;;;;14.77;4.17;;;5.40;99.90;;;;;;4957092;29;20237;-68
2022/02/08 09:28:23;;;;;;;17.90;4.40;;;5.60;99.90;;;;;;4954950;29;21025;-68
2022/02/08 09:30:57;;;;;;;13.87;4.17;;;5.60;99.90;;;;;;4956848;28;20353;-68
2022/02/08 09:33:26;;;;;;;16.50;4.10;;;5.60;99.90;;;;;;4970218;28;20244;-70
2022/02/08 09:35:52;;;;;;;15.53;4.20;;;5.80;99.90;;;;;;4957762;28;20689;-68
2022/02/08 09:38:19;;;;;;;15.27;3.83;;;6.70;99.90;;;;;;4957010;28;20209;-68
2022/02/08 09:40:50;;;;;;;13.93;3.97;;;7.50;99.90;;;;;;4957263;28;20214;-68
2022/02/08 09:43:18;;;;;;;12.63;4.17;;;7.40;99.90;;;;;;4955630;28;20185;-69
2022/02/08 09:45:46;;;;;;;13.43;4.63;;;7.50;99.90;;;;;;4956348;28;20209;-69
2022/02/08 09:48:24;;;;;;;14.33;4.53;;;7.40;99.90;;;;;;4956826;28;20650;-69
2022/02/08 09:50:53;;;;;;;13.53;3.70;;;7.70;99.90;;;;;;4949022;29;20769;-68
2022/02/08 09:53:22;;;;;;;13.57;4.27;;;8.20;99.90;;;;;;4956453;28;20292;-68
2022/02/08 09:55:50;;;;;;;14.47;4.40;;;8.50;99.90;;;;;;4955865;28;20717;-68
2022/02/08 09:58:16;;;;;;;11.93;4.13;;;8.70;99.90;;;;;;4956430;28;20245;-69
2022/02/08 10:10:51;;;;;;;13.30;4.77;;;7.60;99.90;;;;;;4954349;28;20252;-68
2022/02/08 10:13:39;;;;;;;17.57;4.57;;;7.10;99.90;;;;;;4958240;28;20272;-69
2022/02/08 10:21:45;;;;;;;12.03;3.47;;;6.50;99.90;;;;;;4951764;28;20285;-68
2022/02/08 10:24:14;;;;;;;11.23;4.27;;;6.40;99.90;;;;;;4950218;29;20666;-68
2022/02/08 10:26:55;;;;;;;17.07;4.10;;;6.10;99.90;;;;;;4953152;29;20218;-69
2022/02/08 10:29:28;;;;;;;20.13;5.17;;;5.90;99.90;;;;;;4954329;29;20248;-68
2022/02/08 10:37:42;;;;;;;8.13;3.87;;;6.80;99.90;;;;;;4958928;28;20802;-68
2022/02/08 10:40:12;;;;;;;14.17;4.03;;;7.30;99.90;;;;;;4954464;29;20309;-69
2022/02/08 10:42:42;;;;;;;15.53;4.13;;;7.60;99.90;;;;;;4951758;29;20224;-69
2022/02/08 10:45:21;;;;;;;11.20;3.80;;;7.70;99.90;;;;;;4961647;28;20209;-67
2022/02/08 10:47:54;;;;;;;13.40;3.93;;;7.70;99.90;;;;;;4958824;28;20288;-67
2022/02/08 10:50:20;;;;;;;10.30;3.73;;;7.60;99.90;;;;;;4954892;29;20227;-68
2022/02/08 10:52:48;;;;;;;13.03;4.07;;;7.30;99.90;;;;;;4960536;28;20669;-68
2022/02/08 10:55:26;;;;;;;8.33;3.33;;;7.20;99.90;;;;;;4961405;28;20209;-67
2022/02/08 10:58:05;;;;;;;11.97;3.60;;;6.90;99.90;;;;;;4950606;28;20217;-68
2022/02/08 11:00:37;;;;;;;14.83;4.30;;;6.70;99.90;;;;;;4954574;28;20197;-68
2022/02/08 11:03:09;;;;;;;13.33;3.60;;;6.60;99.90;;;;;;4953823;28;20201;-67
2022/02/08 11:05:45;;;;;;;10.60;3.50;;;6.50;99.90;;;;;;4949516;28;20245;-70
2022/02/08 11:08:36;;;;;;;13.37;3.27;;;6.40;99.90;;;;;;4965010;28;20242;-69
2022/02/08 11:11:29;;;;;;;12.53;3.77;;;6.30;99.90;;;;;;4949216;29;20221;-70
2022/02/08 11:14:11;;;;;;;8.70;3.20;;;6.20;99.90;;;;;;4948241;29;20725;-67
2022/02/08 11:17:05;;;;;;;11.03;3.73;;;6.10;99.90;;;;;;4961610;28;20628;-68
2022/02/08 11:19:46;;;;;;;10.63;3.43;;;5.90;99.90;;;;;;4960446;28;20205;-67
2022/02/08 11:22:30;;;;;;;13.70;4.33;;;5.80;99.90;;;;;;4954973;28;20807;-68
2022/02/08 11:25:03;;;;;;;12.47;3.50;;;5.80;99.90;;;;;;4954317;28;20268;-67
2022/02/08 11:27:39;;;;;;;11.00;3.90;;;5.70;99.90;;;;;;4954149;29;20237;-66
2022/02/08 11:30:14;;;;;;;10.60;3.40;;;5.60;99.90;;;;;;4953115;29;20233;-67
2022/02/08 11:32:57;;;;;;;13.97;3.50;;;5.60;99.90;;;;;;4953377;29;20201;-67
2022/02/08 11:44:33;;;;;;;10.00;2.87;;;5.70;99.90;;;;;;4931156;29;20233;-68
2022/02/08 11:47:22;;;;;;;14.93;3.60;;;5.70;99.90;;;;;;4933714;29;20294;-68
2022/02/08 11:50:07;;;;;;;11.63;3.27;;;5.70;99.90;;;;;;4946706;29;20213;-69
2022/02/08 11:52:51;;;;;;;12.17;4.27;;;5.80;99.90;;;;;;4949454;29;20202;-66
2022/02/08 11:58:23;;;;;;;10.30;3.27;;;5.80;99.90;;;;;;4899213;29;20223;-68
2022/02/08 12:01:05;;;;;;;16.50;3.93;;;5.80;99.90;;;;;;4958340;28;20201;-68
2022/02/08 12:06:44;;;;;;;13.47;3.67;;;5.70;99.90;;;;;;4955456;28;20205;-68
2022/02/08 12:09:20;;;;;;;8.73;3.00;;;5.70;99.90;;;;;;4951957;29;20236;-66
2022/02/08 12:12:08;;;;;;;13.20;3.53;;;5.70;99.90;;;;;;4955388;28;20276;-66
2022/02/08 12:31:32;;;;;;;7.50;3.27;;;5.70;99.90;;;;;;4953622;29;20276;-66
2022/02/08 12:34:15;;;;;;;7.43;3.50;;;5.70;99.90;;;;;;4951791;28;20273;-68
2022/02/08 12:48:31;;;;;;;14.97;4.13;;;5.60;99.90;;;;;;4957215;29;20700;-65
2022/02/08 12:54:28;;;;;;;8.17;4.03;;;5.60;99.90;;;;;;4938345;28;20264;-68
2022/02/08 12:57:10;;;;;;;11.00;4.27;;;5.60;99.90;;;;;;4967137;28;20701;-68
2022/02/08 12:59:52;;;;;;;11.57;4.00;;;5.60;99.90;;;;;;4953479;29;20675;-66
2022/02/08 13:02:43;;;;;;;11.00;4.27;;;5.70;99.90;;;;;;4946892;29;20577;-68
2022/02/08 14:05:59;;;;;;;11.57;5.70;;;4.10;99.90;;;;;;4957274;28;20671;-70
2022/02/08 14:08:45;;;;;;;13.07;5.47;;;4.20;99.90;;;;;;4947761;28;20228;-69
2022/02/08 14:14:27;;;;;;;16.83;6.90;;;4.10;99.90;;;;;;4955307;28;20288;-68
2022/02/08 14:19:46;;;;;;;19.20;6.97;;;4.10;99.90;;;;;;4954981;29;20293;-68
2022/02/08 14:22:18;;;;;;;12.83;6.23;;;4.20;99.90;;;;;;4955009;29;20257;-67
2022/02/08 14:30:23;;;;;;;9.70;5.93;;;4.20;99.90;;;;;;4950179;28;20220;-68
2022/02/08 14:33:02;;;;;;;13.63;6.33;;;4.20;99.90;;;;;;4955417;28;20205;-68
2022/02/08 14:35:54;;;;;;;14.60;6.23;;;4.20;99.90;;;;;;4954600;28;20228;-68
2022/02/08 14:58:33;;;;;;;13.53;7.80;;;4.40;99.90;;;;;;4953694;29;20761;-71
2022/02/08 15:05:26;;;;;;;16.63;6.93;;;4.30;99.90;;;;;;4954796;29;20220;-69
2022/02/08 15:06:36;;;;;;;9.53;6.27;;;4.40;99.90;;;;;;4959591;28;20223;-66
2022/02/08 15:09:04;;;;;;;16.00;6.73;;;4.40;99.90;;;;;;4964775;28;20575;-67
2022/02/08 15:11:44;;;;;;;11.43;6.30;;;4.50;99.90;;;;;;4959053;28;20257;-66
2022/02/08 15:14:11;;;;;;;9.43;6.80;;;4.40;99.90;;;;;;4953860;29;20259;-67
2022/02/08 15:16:37;;;;;;;11.30;6.70;;;4.40;99.90;;;;;;4953557;28;20209;-68
2022/02/08 15:19:04;;;;;;;13.97;7.20;;;4.40;99.90;;;;;;4961868;28;20220;-67
2022/02/08 15:21:36;;;;;;;13.17;6.87;;;4.50;99.90;;;;;;4953238;28;20255;-68
2022/02/08 15:24:03;;;;;;;16.43;7.83;;;4.50;99.90;;;;;;4951424;28;20666;-67
2022/02/08 15:26:30;;;;;;;13.33;7.40;;;4.50;99.90;;;;;;4952362;28;20216;-69
2022/02/08 15:29:02;;;;;;;9.47;5.93;;;4.50;99.90;;;;;;4954731;29;20219;-67
2022/02/08 15:31:29;;;;;;;12.23;6.83;;;4.50;99.90;;;;;;4952464;29;20224;-67
2022/02/08 15:33:58;;;;;;;10.77;6.07;;;4.50;99.90;;;;;;4954718;29;20208;-66
2022/02/08 15:36:25;;;;;;;8.73;5.37;;;4.50;99.90;;;;;;4953064;29;20658;-67
2022/02/08 15:38:57;;;;;;;10.53;6.23;;;4.50;99.90;;;;;;4951864;28;20576;-66
2022/02/08 15:41:24;;;;;;;9.53;6.27;;;4.50;99.90;;;;;;4955043;28;20216;-69
2022/02/08 15:43:51;;;;;;;13.20;6.40;;;4.50;99.90;;;;;;4958422;28;20232;-67
2022/02/08 15:46:21;;;;;;;9.60;6.20;;;4.50;99.90;;;;;;4954541;29;20299;-67
2022/02/08 15:48:50;;;;;;;10.83;6.40;;;4.50;99.90;;;;;;4957156;28;20205;-67
2022/02/08 15:51:23;;;;;;;11.80;6.47;;;4.50;99.90;;;;;;4957900;29;20295;-69
2022/02/08 15:54:00;;;;;;;11.17;6.83;;;4.50;99.90;;;;;;4957850;29;20299;-66
2022/02/08 15:56:41;;;;;;;8.47;6.37;;;4.40;99.90;;;;;;4955885;28;20216;-66
2022/02/08 16:07:26;;;;;;;9.27;6.50;;;4.50;99.90;;;;;;4956873;28;20204;-67
2022/02/08 16:09:59;;;;;;;11.20;6.17;;;4.50;99.90;;;;;;4957555;29;20220;-68
2022/02/08 16:12:48;;;;;;;9.07;5.70;;;4.60;99.90;;;;;;4956671;29;20227;-66
2022/02/08 16:15:26;;;;;;;8.80;5.97;;;4.60;99.90;;;;;;4961787;28;20205;-66
2022/02/08 16:18:03;;;;;;;8.87;5.77;;;4.60;99.90;;;;;;4950800;28;20291;-68
2022/02/08 16:20:44;;;;;;;10.03;5.53;;;4.60;99.90;;;;;;4956960;29;20306;-67
2022/02/08 16:23:28;;;;;;;7.57;5.57;;;4.70;99.90;;;;;;4960805;28;20209;-67
2022/02/08 16:26:04;;;;;;;8.13;5.87;;;4.70;99.90;;;;;;4951402;28;20209;-69
2022/02/08 16:28:51;;;;;;;7.63;5.60;;;4.70;99.90;;;;;;4948031;29;20201;-67
2022/02/08 16:31:42;;;;;;;10.20;5.90;;;4.70;99.90;;;;;;4957304;28;20228;-67
2022/02/08 16:53:29;;;;;;;9.30;6.10;;;4.90;99.90;;;;;;4954913;28;20216;-67
2022/02/08 16:59:02;;;;;;;7.67;5.90;;;4.90;99.90;;;;;;5088383;28;20611;-67
2022/02/08 17:01:30;;;;;;;9.23;7.03;;;4.90;99.90;;;;;;5070916;28;20236;-68
2022/02/08 17:03:58;;;;;;;7.27;6.17;;;4.90;99.90;;;;;;5070633;28;20296;-67
2022/02/08 17:06:28;;;;;;;8.50;6.47;;;4.90;99.90;;;;;;5070458;28;20201;-68
2022/02/08 17:09:02;;;;;;;8.97;6.33;;;5.00;99.90;;;;;;5070487;28;20220;-67
2022/02/08 17:11:38;;;;;;;8.80;6.50;;;5.00;99.90;;;;;;5071948;28;20235;-69
2022/02/08 17:16:52;;;;;;;8.53;6.40;;;5.00;99.90;;;;;;5062190;28;20198;-67
2022/02/08 17:47:30;;;;;;;9.77;7.37;;;5.40;99.90;;;;;;5072288;28;20196;-68
2022/02/08 17:49:57;;;;;;;8.70;7.03;;;5.30;99.90;;;;;;5076819;28;20252;-68
2022/02/08 17:52:24;;;;;;;9.33;7.53;;;5.40;99.90;;;;;;5077693;28;20221;-71
2022/02/08 17:54:52;;;;;;;8.70;6.73;;;5.40;99.90;;;;;;5074656;28;20551;-69
2022/02/08 17:57:19;;;;;;;8.70;7.00;;;5.40;99.90;;;;;;5073694;28;20658;-70
2022/02/08 17:59:47;;;;;;;10.07;7.10;;;5.40;99.90;;;;;;5085894;28;20228;-71
2022/02/08 18:02:14;;;;;;;8.37;6.77;;;5.40;99.90;;;;;;5070591;28;20558;-71
2022/02/08 18:04:43;;;;;;;8.27;6.90;;;5.50;99.90;;;;;;5075542;28;20625;-71
2022/02/08 18:07:11;;;;;;;8.73;7.03;;;5.60;99.90;;;;;;5070669;28;20237;-71
2022/02/08 18:09:37;;;;;;;8.53;7.53;;;5.50;99.90;;;;;;5076464;28;20200;-69
2022/02/08 18:12:07;;;;;;;9.33;7.83;;;5.50;99.90;;;;;;5069459;28;20292;-70
2022/02/08 18:14:35;;;;;;;9.57;7.47;;;5.50;99.90;;;;;;5066922;28;20209;-71
2022/02/08 18:17:07;;;;;;;8.93;7.60;;;5.50;99.90;;;;;;5073620;28;20243;-71
2022/02/08 18:19:38;;;;;;;8.93;8.03;;;5.60;99.90;;;;;;5069677;28;20754;-70
2022/02/08 18:22:23;;;;;;;11.03;7.70;;;5.60;99.90;;;;;;5062440;28;20242;-71
2022/02/08 18:25:03;;;;;;;9.50;7.20;;;5.60;99.90;;;;;;5069465;28;20205;-69
2022/02/08 18:27:46;;;;;;;11.27;7.70;;;5.60;99.90;;;;;;5077685;28;20219;-73
2022/02/08 18:58:06;;;;;;;10.20;7.60;;;6.00;99.90;;;;;;5055238;28;20626;-68